Time;durP1;ratioP1;P1;durP2;ratioP2;P2;SDS_P1;SDS_P2;PMS_P1;PMS_P2;Temp;Humidity;BMP_temperature;BMP_pressure;BME280_temperature;BME280_humidity;BME280_pressure;Samples;Min_cycle;Max_cycle;Signal;HPM_P1;HPM_P2
2023/08/01 06:01:52;;;;;;;25.15;8.43;;;;;;;;;;5230147;23;20039;-88
2023/08/01 06:04:18;;;;;;;31.52;8.13;;;;;;;;;;4933372;29;20044;-89
2023/08/01 06:06:43;;;;;;;37.53;8.90;;;;;;;;;;4934323;29;20071;-88
2023/08/01 06:09:08;;;;;;;35.90;8.77;;;;;;;;;;4933355;29;20047;-90
2023/08/01 06:11:34;;;;;;;26.33;8.40;;;;;;;;;;4926665;29;20131;-89
2023/08/01 06:14:00;;;;;;;30.23;7.95;;;;;;;;;;4929319;29;20048;-89
2023/08/01 06:16:25;;;;;;;36.75;8.25;;;;;;;;;;4934191;29;20047;-88
2023/08/01 06:18:51;;;;;;;35.00;9.20;;;;;;;;;;4934520;29;20047;-86
2023/08/01 06:21:16;;;;;;;31.67;9.20;;;;;;;;;;4932599;29;20077;-86
2023/08/01 06:23:41;;;;;;;29.98;8.93;;;;;;;;;;4928114;29;20050;-86
2023/08/01 06:26:07;;;;;;;31.92;8.05;;;;;;;;;;4924034;29;20059;-85
2023/08/01 06:28:32;;;;;;;35.80;8.70;;;;;;;;;;4915559;29;20040;-87
2023/08/01 06:30:57;;;;;;;31.85;9.00;;;;;;;;;;4914946;29;20048;-87
2023/08/01 06:33:23;;;;;;;35.38;9.27;;;;;;;;;;4933017;29;20075;-87
2023/08/01 06:35:49;;;;;;;32.17;8.55;;;;;;;;;;4918337;29;20519;-87
2023/08/01 06:38:14;;;;;;;22.85;8.05;;;;;;;;;;4935798;29;20067;-86
2023/08/01 06:40:40;;;;;;;30.92;8.02;;;;;;;;;;4937132;29;20075;-87
2023/08/01 06:43:05;;;;;;;31.70;8.85;;;;;;;;;;4933631;29;20051;-85
2023/08/01 06:45:30;;;;;;;21.17;8.50;;;;;;;;;;4919109;29;20066;-84
2023/08/01 06:47:56;;;;;;;31.70;8.50;;;;;;;;;;4928382;29;20413;-83
2023/08/01 06:50:21;;;;;;;34.20;8.65;;;;;;;;;;4916883;29;20040;-83
2023/08/01 06:52:46;;;;;;;27.52;8.88;;;;;;;;;;4918050;29;20099;-82
2023/08/01 06:55:12;;;;;;;30.08;8.90;;;;;;;;;;4917462;29;20509;-83
2023/08/01 06:57:37;;;;;;;25.95;8.73;;;;;;;;;;4918871;29;20040;-83
2023/08/01 07:00:03;;;;;;;42.13;9.07;;;;;;;;;;4936369;29;20643;-82
2023/08/01 07:02:28;;;;;;;31.17;8.40;;;;;;;;;;4934512;29;20054;-83
2023/08/01 07:04:54;;;;;;;39.25;9.18;;;;;;;;;;4935661;29;20122;-83
2023/08/01 07:07:19;;;;;;;24.40;8.15;;;;;;;;;;4935375;29;20589;-83
2023/08/01 07:09:45;;;;;;;37.15;9.27;;;;;;;;;;4934663;29;20054;-83
2023/08/01 07:12:10;;;;;;;29.27;8.23;;;;;;;;;;4935592;29;20419;-84
2023/08/01 07:14:35;;;;;;;28.92;8.40;;;;;;;;;;4935309;29;20095;-83
2023/08/01 07:17:01;;;;;;;30.15;8.60;;;;;;;;;;4935717;29;20035;-82
2023/08/01 07:19:26;;;;;;;30.75;8.30;;;;;;;;;;4935721;29;20373;-83
2023/08/01 07:21:52;;;;;;;30.08;8.48;;;;;;;;;;4935745;29;20110;-82
2023/08/01 07:24:17;;;;;;;37.10;8.35;;;;;;;;;;4935194;29;20055;-82
2023/08/01 07:26:42;;;;;;;37.10;8.35;;;;;;;;;;4935763;29;20054;-82
2023/08/01 07:29:10;;;;;;;30.98;8.05;;;;;;;;;;4936078;29;20074;-83
2023/08/01 07:31:36;;;;;;;30.85;7.47;;;;;;;;;;4935893;29;20044;-82
2023/08/01 07:34:01;;;;;;;31.38;7.63;;;;;;;;;;4935911;29;20131;-82
2023/08/01 07:36:27;;;;;;;33.20;7.78;;;;;;;;;;4935815;29;20381;-82
2023/08/01 07:38:53;;;;;;;25.45;7.38;;;;;;;;;;4919683;29;20047;-81
2023/08/01 07:41:19;;;;;;;29.08;7.65;;;;;;;;;;4935428;29;20119;-82
2023/08/01 07:43:44;;;;;;;32.83;8.18;;;;;;;;;;4935223;29;20134;-80
2023/08/01 07:46:11;;;;;;;24.17;7.93;;;;;;;;;;4926511;29;20044;-81
2023/08/01 07:48:37;;;;;;;28.08;8.05;;;;;;;;;;4915723;29;20584;-82
2023/08/01 07:51:05;;;;;;;32.22;8.35;;;;;;;;;;4914988;29;20184;-81
2023/08/01 07:53:30;;;;;;;25.65;8.45;;;;;;;;;;4914510;29;20051;-81
2023/08/01 07:55:56;;;;;;;34.10;8.90;;;;;;;;;;4901911;29;20059;-82
2023/08/01 07:58:21;;;;;;;28.98;8.15;;;;;;;;;;4932509;29;20051;-81
2023/08/01 08:00:46;;;;;;;25.92;8.85;;;;;;;;;;4916116;29;20070;-82
2023/08/01 08:03:12;;;;;;;25.58;8.50;;;;;;;;;;4934214;29;20043;-83
2023/08/01 08:05:38;;;;;;;27.27;7.72;;;;;;;;;;4935207;29;20126;-83
2023/08/01 08:08:05;;;;;;;32.10;7.97;;;;;;;;;;4934334;29;20047;-83
2023/08/01 08:10:30;;;;;;;24.20;8.57;;;;;;;;;;4934694;29;20051;-82
2023/08/01 08:12:56;;;;;;;26.58;7.70;;;;;;;;;;4933681;29;20432;-83
2023/08/01 08:15:23;;;;;;;24.88;7.63;;;;;;;;;;4934686;29;20382;-84
2023/08/01 08:17:48;;;;;;;22.17;8.10;;;;;;;;;;4935404;29;20334;-83
2023/08/01 08:20:13;;;;;;;36.67;7.97;;;;;;;;;;4917844;29;20123;-83
2023/08/01 08:22:39;;;;;;;30.58;8.02;;;;;;;;;;4934963;29;20504;-83
2023/08/01 08:25:04;;;;;;;27.02;7.50;;;;;;;;;;4921495;29;20048;-83
2023/08/01 08:27:30;;;;;;;28.33;7.60;;;;;;;;;;4940424;29;20043;-82
2023/08/01 08:29:55;;;;;;;22.38;7.28;;;;;;;;;;4934451;29;20043;-84
2023/08/01 08:32:21;;;;;;;25.98;7.13;;;;;;;;;;4934185;28;20046;-85
2023/08/01 08:34:46;;;;;;;20.83;6.72;;;;;;;;;;4916383;29;20508;-86
2023/08/01 08:37:11;;;;;;;21.60;5.88;;;;;;;;;;4931543;29;20405;-84
2023/08/01 08:39:37;;;;;;;21.80;6.30;;;;;;;;;;4934364;29;20409;-84
2023/08/01 08:42:02;;;;;;;22.73;6.65;;;;;;;;;;4933150;29;20071;-84
2023/08/01 08:44:34;;;;;;;19.25;7.00;;;;;;;;;;4933758;29;20046;-84
2023/08/01 08:47:06;;;;;;;17.25;6.72;;;;;;;;;;4934800;29;20408;-84
2023/08/01 08:49:32;;;;;;;21.02;7.28;;;;;;;;;;4934034;29;20074;-84
2023/08/01 08:51:58;;;;;;;22.60;7.57;;;;;;;;;;4932581;29;20072;-84
2023/08/01 08:54:24;;;;;;;21.25;7.35;;;;;;;;;;4932138;29;20483;-84
2023/08/01 08:56:50;;;;;;;16.15;6.50;;;;;;;;;;4932821;29;20040;-84
2023/08/01 08:59:16;;;;;;;18.95;6.20;;;;;;;;;;4931797;29;20199;-84
2023/08/01 09:01:41;;;;;;;19.17;6.80;;;;;;;;;;4932488;29;20099;-85
2023/08/01 09:04:07;;;;;;;23.90;7.07;;;;;;;;;;4931782;29;20127;-84
2023/08/01 09:06:40;;;;;;;25.35;7.68;;;;;;;;;;4934391;29;20421;-84
2023/08/01 09:09:14;;;;;;;22.75;8.40;;;;;;;;;;4933931;29;20471;-84
2023/08/01 09:11:50;;;;;;;27.30;7.80;;;;;;;;;;4934226;29;20044;-84
2023/08/01 09:14:17;;;;;;;26.02;8.20;;;;;;;;;;4933602;29;20122;-83
2023/08/01 09:16:43;;;;;;;35.83;8.10;;;;;;;;;;4934381;29;20067;-84
2023/08/01 09:19:09;;;;;;;26.70;7.55;;;;;;;;;;4933999;29;20047;-84
2023/08/01 09:21:39;;;;;;;24.80;7.85;;;;;;;;;;4916775;29;20432;-85
2023/08/01 09:24:09;;;;;;;34.40;8.00;;;;;;;;;;4933582;29;20156;-83
2023/08/01 09:26:35;;;;;;;25.52;7.20;;;;;;;;;;4934174;29;20054;-84
2023/08/01 09:29:00;;;;;;;26.08;7.00;;;;;;;;;;4934488;29;20123;-84
2023/08/01 09:31:30;;;;;;;25.98;8.40;;;;;;;;;;4933417;29;20052;-83
2023/08/01 09:33:55;;;;;;;32.28;8.15;;;;;;;;;;4933697;29;20075;-84
2023/08/01 09:36:22;;;;;;;25.05;7.28;;;;;;;;;;4933957;29;20520;-85
2023/08/01 09:38:47;;;;;;;29.77;7.55;;;;;;;;;;4933660;29;20054;-85
2023/08/01 09:41:19;;;;;;;23.55;7.45;;;;;;;;;;4933492;29;20123;-83
2023/08/01 09:43:48;;;;;;;18.98;6.75;;;;;;;;;;4933385;29;20044;-84
2023/08/01 09:46:13;;;;;;;25.55;6.70;;;;;;;;;;4934007;29;20160;-84
2023/08/01 09:48:39;;;;;;;30.58;7.55;;;;;;;;;;4933775;29;20489;-84
2023/08/01 09:51:08;;;;;;;30.05;7.35;;;;;;;;;;4933271;29;20134;-83
2023/08/01 09:53:35;;;;;;;33.80;7.32;;;;;;;;;;4933535;29;20075;-83
2023/08/01 09:56:04;;;;;;;22.33;6.68;;;;;;;;;;4934114;29;20051;-82
2023/08/01 09:58:34;;;;;;;27.42;6.20;;;;;;;;;;4933442;29;20055;-83
2023/08/01 10:01:01;;;;;;;25.17;6.95;;;;;;;;;;4933670;29;20055;-83
2023/08/01 10:03:28;;;;;;;24.40;6.28;;;;;;;;;;4933052;29;20043;-83
2023/08/01 10:05:55;;;;;;;22.13;6.07;;;;;;;;;;4934095;29;20056;-83
2023/08/01 10:08:21;;;;;;;31.95;6.90;;;;;;;;;;4932359;29;20044;-83
2023/08/01 10:10:48;;;;;;;24.17;6.95;;;;;;;;;;4933556;29;20051;-83
2023/08/01 10:13:14;;;;;;;39.58;9.60;;;;;;;;;;4932791;29;20173;-82
2023/08/01 10:15:40;;;;;;;26.92;6.88;;;;;;;;;;4933455;29;20061;-83
2023/08/01 10:18:05;;;;;;;26.20;6.68;;;;;;;;;;4933171;29;20044;-84
2023/08/01 10:20:32;;;;;;;27.70;6.75;;;;;;;;;;4935871;29;20055;-84
2023/08/01 10:22:58;;;;;;;21.73;6.20;;;;;;;;;;4932806;29;20156;-84
2023/08/01 10:25:24;;;;;;;24.35;6.28;;;;;;;;;;4932428;29;20088;-84
2023/08/01 10:28:07;;;;;;;30.85;10.07;;;;;;;;;;4915938;29;20150;-84
2023/08/01 10:30:32;;;;;;;26.90;8.02;;;;;;;;;;4930816;29;20051;-85
2023/08/01 10:32:59;;;;;;;26.60;6.90;;;;;;;;;;4932810;29;20070;-82
2023/08/01 10:35:32;;;;;;;19.48;6.40;;;;;;;;;;4931963;29;20408;-84
2023/08/01 10:38:04;;;;;;;19.83;6.35;;;;;;;;;;4932708;29;20052;-84
2023/08/01 10:40:37;;;;;;;20.67;5.50;;;;;;;;;;4929525;29;20039;-84
2023/08/01 10:43:03;;;;;;;13.88;5.30;;;;;;;;;;4932818;29;20501;-86
2023/08/01 10:45:29;;;;;;;13.55;5.68;;;;;;;;;;4932640;29;20524;-84
2023/08/01 10:48:07;;;;;;;22.33;6.22;;;;;;;;;;4916548;29;20047;-85
2023/08/01 10:50:32;;;;;;;13.98;5.20;;;;;;;;;;4915691;29;20044;-84
2023/08/01 10:53:09;;;;;;;19.20;5.82;;;;;;;;;;4933529;29;20048;-83
2023/08/01 10:55:48;;;;;;;17.25;5.03;;;;;;;;;;4932756;29;20393;-85
2023/08/01 10:58:14;;;;;;;15.52;5.75;;;;;;;;;;4915745;29;20040;-84
2023/08/01 11:00:41;;;;;;;12.30;5.20;;;;;;;;;;4932824;29;20056;-82
2023/08/01 11:03:07;;;;;;;15.68;5.18;;;;;;;;;;4934587;29;20044;-82
2023/08/01 11:05:32;;;;;;;18.02;5.15;;;;;;;;;;4933021;29;20769;-82
2023/08/01 11:07:59;;;;;;;15.30;5.38;;;;;;;;;;4943215;29;20051;-84
2023/08/01 11:10:27;;;;;;;14.82;4.97;;;;;;;;;;4940604;29;20035;-83
2023/08/01 11:12:53;;;;;;;23.02;6.07;;;;;;;;;;4936298;29;20058;-84
2023/08/01 11:15:19;;;;;;;18.30;6.05;;;;;;;;;;4933709;28;20035;-83
2023/08/01 11:17:49;;;;;;;21.83;6.45;;;;;;;;;;4932342;28;20052;-83
2023/08/01 11:20:15;;;;;;;20.98;6.65;;;;;;;;;;4931672;28;20067;-83
2023/08/01 11:23:00;;;;;;;25.58;7.38;;;;;;;;;;4935935;29;20044;-83
2023/08/01 11:25:45;;;;;;;25.40;7.68;;;;;;;;;;4932991;28;20110;-84
2023/08/01 11:28:14;;;;;;;24.75;7.38;;;;;;;;;;4934796;28;20094;-83
2023/08/01 11:30:40;;;;;;;;;;;;;;;;;;4936174;28;20051;-84
2023/08/01 11:33:15;;;;;;;26.13;7.95;;;;;;;;;;4918207;28;20451;-85
2023/08/01 11:35:41;;;;;;;28.65;7.97;;;;;;;;;;4936304;28;20064;-84
2023/08/01 11:38:07;;;;;;;26.75;7.20;;;;;;;;;;4935772;28;20071;-83
2023/08/01 11:40:33;;;;;;;16.15;7.07;;;;;;;;;;4935985;28;20433;-85
2023/08/01 11:42:59;;;;;;;25.05;7.55;;;;;;;;;;4918967;29;20039;-83
2023/08/01 11:45:25;;;;;;;27.48;7.93;;;;;;;;;;4934551;28;20071;-84
2023/08/01 11:47:51;;;;;;;31.15;7.95;;;;;;;;;;4936012;28;20035;-84
2023/08/01 11:50:24;;;;;;;35.47;8.70;;;;;;;;;;4935352;28;20046;-85
2023/08/01 11:52:49;;;;;;;36.35;8.63;;;;;;;;;;4935102;28;20098;-85
2023/08/01 11:55:28;;;;;;;29.95;8.60;;;;;;;;;;4934216;28;20043;-84
2023/08/01 11:57:57;;;;;;;25.85;7.97;;;;;;;;;;4935389;29;20160;-84
2023/08/01 12:00:24;;;;;;;23.15;7.40;;;;;;;;;;4934594;29;20043;-82
2023/08/01 12:02:50;;;;;;;27.67;7.85;;;;;;;;;;4934634;28;20099;-83
2023/08/01 12:05:23;;;;;;;28.30;8.30;;;;;;;;;;4934234;28;20051;-83
2023/08/01 12:07:48;;;;;;;24.70;8.07;;;;;;;;;;4934762;28;20535;-84
2023/08/01 12:10:13;;;;;;;31.33;8.60;;;;;;;;;;4934282;28;20131;-84
2023/08/01 12:12:45;;;;;;;30.00;8.23;;;;;;;;;;4934872;28;20284;-84
2023/08/01 12:15:11;;;;;;;33.05;8.15;;;;;;;;;;4933943;28;20043;-84
2023/08/01 12:17:36;;;;;;;36.47;8.57;;;;;;;;;;4934695;28;20039;-84
2023/08/01 12:20:02;;;;;;;38.20;8.77;;;;;;;;;;4935684;29;20043;-85
2023/08/01 12:22:27;;;;;;;35.78;8.90;;;;;;;;;;4933400;29;20040;-85
2023/08/01 12:24:53;;;;;;;31.52;8.98;;;;;;;;;;4933221;29;20051;-85
2023/08/01 12:27:18;;;;;;;32.00;7.78;;;;;;;;;;4934381;29;20067;-85
2023/08/01 12:29:43;;;;;;;36.47;9.57;;;;;;;;;;4933325;29;20055;-85
2023/08/01 12:32:09;;;;;;;24.15;7.80;;;;;;;;;;4932445;29;20099;-85
2023/08/01 12:34:34;;;;;;;27.23;7.88;;;;;;;;;;4933003;29;20043;-85
2023/08/01 12:36:59;;;;;;;28.27;8.13;;;;;;;;;;4933035;29;20040;-85
2023/08/01 12:39:25;;;;;;;28.73;7.47;;;;;;;;;;4932538;29;20043;-85
2023/08/01 12:41:53;;;;;;;21.70;7.47;;;;;;;;;;4932903;29;20091;-86
2023/08/01 12:44:18;;;;;;;20.58;7.50;;;;;;;;;;4933739;29;20131;-85
2023/08/01 12:46:43;;;;;;;25.33;6.55;;;;;;;;;;4935516;29;20127;-85
2023/08/01 12:49:09;;;;;;;19.05;6.63;;;;;;;;;;4934266;29;20044;-84
2023/08/01 12:51:34;;;;;;;19.92;6.95;;;;;;;;;;4934418;29;20122;-84
2023/08/01 12:54:00;;;;;;;15.18;6.63;;;;;;;;;;4934837;29;20051;-85
2023/08/01 12:56:25;;;;;;;16.23;6.25;;;;;;;;;;4917536;29;20426;-84
2023/08/01 12:58:50;;;;;;;16.50;6.80;;;;;;;;;;4934684;29;20173;-85
2023/08/01 13:01:16;;;;;;;21.33;6.93;;;;;;;;;;4934004;29;20128;-84
2023/08/01 13:03:41;;;;;;;20.48;7.40;;;;;;;;;;4934453;29;20050;-85
2023/08/01 13:06:10;;;;;;;26.88;7.72;;;;;;;;;;4933793;29;20135;-85
2023/08/01 13:08:35;;;;;;;30.50;9.05;;;;;;;;;;4934881;29;20051;-85
2023/08/01 13:11:02;;;;;;;25.63;9.18;;;;;;;;;;4935164;29;20115;-85
2023/08/01 13:13:28;;;;;;;30.55;9.32;;;;;;;;;;4933900;29;20040;-85
2023/08/01 13:15:53;;;;;;;28.85;8.90;;;;;;;;;;4934175;29;20047;-84
2023/08/01 13:18:19;;;;;;;24.58;8.98;;;;;;;;;;4933735;29;20102;-85
2023/08/01 13:20:44;;;;;;;29.27;9.00;;;;;;;;;;4934696;29;20044;-84
2023/08/01 13:23:09;;;;;;;25.67;9.27;;;;;;;;;;4933753;29;20516;-84
2023/08/01 13:25:35;;;;;;;31.05;9.93;;;;;;;;;;4934108;29;20047;-84
2023/08/01 13:28:01;;;;;;;26.15;9.75;;;;;;;;;;4933955;29;20050;-84
2023/08/01 13:30:26;;;;;;;32.67;8.80;;;;;;;;;;4933769;29;20453;-85
2023/08/01 13:32:51;;;;;;;24.05;8.70;;;;;;;;;;4934044;29;20067;-85
2023/08/01 13:35:17;;;;;;;25.02;9.13;;;;;;;;;;4933371;29;20043;-84
2023/08/01 13:37:42;;;;;;;26.15;9.05;;;;;;;;;;4933915;29;20099;-85
2023/08/01 13:40:10;;;;;;;21.58;9.00;;;;;;;;;;4933321;29;20036;-84
2023/08/01 13:42:35;;;;;;;24.60;9.25;;;;;;;;;;4933233;29;20048;-85
2023/08/01 13:45:01;;;;;;;24.02;8.32;;;;;;;;;;4934169;29;20065;-86
2023/08/01 13:47:26;;;;;;;22.70;8.70;;;;;;;;;;4933365;29;20051;-85
2023/08/01 13:49:51;;;;;;;21.45;8.60;;;;;;;;;;4933481;29;20052;-86
2023/08/01 13:52:17;;;;;;;28.65;8.93;;;;;;;;;;4933462;29;20048;-85
2023/08/01 13:54:42;;;;;;;19.58;7.60;;;;;;;;;;4933919;29;20047;-86
2023/08/01 13:57:08;;;;;;;28.23;8.13;;;;;;;;;;4916176;29;20127;-84
2023/08/01 13:59:33;;;;;;;22.85;8.80;;;;;;;;;;4934017;29;20580;-85
2023/08/01 14:01:58;;;;;;;27.67;8.02;;;;;;;;;;4933356;29;20480;-83
2023/08/01 14:04:24;;;;;;;27.17;8.90;;;;;;;;;;4933182;29;20497;-86
2023/08/01 14:06:49;;;;;;;19.80;8.02;;;;;;;;;;4934106;29;20043;-86
2023/08/01 14:09:15;;;;;;;17.27;7.60;;;;;;;;;;4932922;29;20466;-86
2023/08/01 14:11:40;;;;;;;18.13;7.93;;;;;;;;;;4916506;29;20046;-87
2023/08/01 14:14:06;;;;;;;15.70;6.53;;;;;;;;;;4933046;29;20131;-88
2023/08/01 14:16:31;;;;;;;18.77;7.03;;;;;;;;;;4933445;29;20047;-86
2023/08/01 14:18:59;;;;;;;15.70;6.03;;;;;;;;;;4933672;29;20050;-86
2023/08/01 14:21:24;;;;;;;18.25;6.57;;;;;;;;;;4932955;29;20111;-88
2023/08/01 14:23:49;;;;;;;17.70;7.55;;;;;;;;;;4933716;29;20043;-88
2023/08/01 14:26:15;;;;;;;15.75;6.40;;;;;;;;;;4916130;29;20489;-88
2023/08/01 14:28:40;;;;;;;16.50;6.95;;;;;;;;;;4933352;29;20040;-87
2023/08/01 14:31:07;;;;;;;14.70;6.55;;;;;;;;;;4933452;29;20040;-87
2023/08/01 14:33:33;;;;;;;16.58;6.22;;;;;;;;;;4933261;29;20084;-86
2023/08/01 14:35:58;;;;;;;12.13;6.90;;;;;;;;;;4933447;29;20134;-87
2023/08/01 14:38:24;;;;;;;13.80;6.47;;;;;;;;;;4916086;29;20404;-86
2023/08/01 14:40:49;;;;;;;14.88;7.15;;;;;;;;;;4916251;29;20040;-86
2023/08/01 14:43:14;;;;;;;15.40;6.68;;;;;;;;;;4932666;29;20465;-87
2023/08/01 14:45:40;;;;;;;14.65;6.35;;;;;;;;;;4933215;29;20548;-86
2023/08/01 14:48:09;;;;;;;16.55;7.05;;;;;;;;;;4933059;29;20044;-86
2023/08/01 14:50:34;;;;;;;21.48;7.35;;;;;;;;;;4916292;29;20054;-86
2023/08/01 14:53:02;;;;;;;12.77;5.78;;;;;;;;;;4933134;29;20055;-88
2023/08/01 14:55:28;;;;;;;12.77;6.75;;;;;;;;;;4924950;29;20037;-87
2023/08/01 14:57:54;;;;;;;14.60;6.88;;;;;;;;;;4916150;29;20047;-88
2023/08/01 15:00:19;;;;;;;16.67;6.38;;;;;;;;;;4914853;29;20058;-87
2023/08/01 15:02:45;;;;;;;15.50;6.65;;;;;;;;;;4931066;29;20102;-87
2023/08/01 15:05:12;;;;;;;11.50;5.70;;;;;;;;;;4929850;29;20539;-88
2023/08/01 15:07:37;;;;;;;9.10;3.97;;;;;;;;;;4912789;29;20047;-89
2023/08/01 15:10:03;;;;;;;9.52;4.10;;;;;;;;;;4915229;29;20050;-89
2023/08/01 15:12:29;;;;;;;8.55;4.65;;;;;;;;;;4946697;29;20059;-91
2023/08/01 15:14:55;;;;;;;10.20;4.97;;;;;;;;;;4918385;29;20271;-88
2023/08/01 15:17:20;;;;;;;7.30;4.20;;;;;;;;;;4929311;29;20078;-88
2023/08/01 15:19:47;;;;;;;7.10;4.03;;;;;;;;;;4944706;29;20115;-88
2023/08/01 15:22:21;;;;;;;5.68;3.58;;;;;;;;;;4930058;29;20035;-87
2023/08/01 15:24:46;;;;;;;5.55;3.97;;;;;;;;;;4903173;29;20058;-88
2023/08/01 15:27:13;;;;;;;6.38;3.67;;;;;;;;;;4903027;29;20425;-89
2023/08/01 15:29:39;;;;;;;5.05;3.20;;;;;;;;;;4927090;29;20146;-89
2023/08/01 15:32:05;;;;;;;5.82;2.88;;;;;;;;;;4912056;29;20135;-88
2023/08/01 15:34:30;;;;;;;4.40;2.90;;;;;;;;;;4929090;29;20043;-88
2023/08/01 15:36:56;;;;;;;6.03;3.10;;;;;;;;;;4912601;29;20099;-88
2023/08/01 15:39:21;;;;;;;4.63;3.00;;;;;;;;;;4928630;29;20079;-88
2023/08/01 15:41:47;;;;;;;5.22;3.42;;;;;;;;;;4912454;29;20106;-88
2023/08/01 15:44:13;;;;;;;7.50;3.50;;;;;;;;;;4933821;29;20075;-89
2023/08/01 15:46:38;;;;;;;5.30;4.00;;;;;;;;;;4928686;29;20067;-89
2023/08/01 15:49:04;;;;;;;7.35;3.92;;;;;;;;;;4925681;29;20082;-89
2023/08/01 15:51:31;;;;;;;8.10;3.83;;;;;;;;;;4929080;29;20067;-89
2023/08/01 15:53:57;;;;;;;6.63;4.55;;;;;;;;;;4916329;29;20060;-86
2023/08/01 15:56:22;;;;;;;6.40;4.15;;;;;;;;;;4934164;29;20088;-86
2023/08/01 15:58:48;;;;;;;7.18;4.97;;;;;;;;;;4919915;29;20420;-84
2023/08/01 16:01:13;;;;;;;9.25;5.78;;;;;;;;;;4917693;29;20044;-84
2023/08/01 16:03:40;;;;;;;8.98;5.85;;;;;;;;;;4934830;29;20039;-84
2023/08/01 16:06:07;;;;;;;9.48;5.93;;;;;;;;;;4934919;29;20118;-84
2023/08/01 16:08:33;;;;;;;9.75;6.20;;;;;;;;;;4918685;29;20055;-85
2023/08/01 16:10:59;;;;;;;10.00;5.70;;;;;;;;;;4935518;29;20047;-84
2023/08/01 16:13:24;;;;;;;10.75;6.03;;;;;;;;;;4935277;29;20409;-84
2023/08/01 16:15:51;;;;;;;9.68;6.72;;;;;;;;;;4935294;29;20418;-84
2023/08/01 16:18:17;;;;;;;7.90;5.07;;;;;;;;;;4935513;29;20046;-84
2023/08/01 16:20:43;;;;;;;9.70;6.00;;;;;;;;;;4935688;29;20063;-84
2023/08/01 16:23:08;;;;;;;9.88;6.43;;;;;;;;;;4934867;29;20071;-84
2023/08/01 16:25:34;;;;;;;10.00;6.53;;;;;;;;;;4935679;29;20063;-85
2023/08/01 16:28:00;;;;;;;12.50;7.97;;;;;;;;;;4935154;29;20441;-85
2023/08/01 16:30:26;;;;;;;15.10;9.40;;;;;;;;;;4934447;29;20127;-85
2023/08/01 16:32:51;;;;;;;13.38;10.10;;;;;;;;;;4917119;29;20043;-84
2023/08/01 16:35:17;;;;;;;17.90;10.55;;;;;;;;;;4920971;29;20043;-84
2023/08/01 16:37:42;;;;;;;20.50;12.30;;;;;;;;;;4925088;29;20046;-86
2023/08/01 16:40:09;;;;;;;20.30;11.63;;;;;;;;;;4907262;29;20482;-86
2023/08/01 16:42:35;;;;;;;18.02;11.82;;;;;;;;;;4926554;29;20066;-86
2023/08/01 16:45:00;;;;;;;19.40;11.38;;;;;;;;;;4908575;29;20070;-87
2023/08/01 16:47:26;;;;;;;17.52;11.38;;;;;;;;;;4909411;29;20047;-86
2023/08/01 16:49:55;;;;;;;15.10;11.25;;;;;;;;;;4910862;29;20043;-87
2023/08/01 16:52:21;;;;;;;16.60;10.50;;;;;;;;;;4925120;29;20050;-87
2023/08/01 16:54:47;;;;;;;15.20;9.98;;;;;;;;;;4909244;29;20043;-86
2023/08/01 16:57:12;;;;;;;11.05;7.63;;;;;;;;;;4927568;29;20074;-88
2023/08/01 16:59:39;;;;;;;13.38;7.93;;;;;;;;;;4927982;29;20190;-87
2023/08/01 17:02:08;;;;;;;8.35;5.90;;;;;;;;;;4927343;29;20086;-85
2023/08/01 17:04:34;;;;;;;7.55;5.28;;;;;;;;;;4927739;29;20058;-86
2023/08/01 17:07:00;;;;;;;8.50;5.53;;;;;;;;;;4927565;29;20047;-88
2023/08/01 17:09:27;;;;;;;8.63;5.80;;;;;;;;;;4927123;29;20164;-86
2023/08/01 17:11:53;;;;;;;8.65;5.72;;;;;;;;;;4926677;29;20536;-85
2023/08/01 17:14:18;;;;;;;9.02;5.82;;;;;;;;;;4926655;29;20043;-86
2023/08/01 17:16:43;;;;;;;8.32;5.22;;;;;;;;;;4927274;29;20075;-86
2023/08/01 17:19:09;;;;;;;7.72;5.82;;;;;;;;;;4926162;29;20119;-85
2023/08/01 17:21:34;;;;;;;9.52;5.10;;;;;;;;;;4910161;29;20057;-84
2023/08/01 17:24:00;;;;;;;7.35;5.05;;;;;;;;;;4927028;29;20043;-86
2023/08/01 17:26:25;;;;;;;8.07;4.82;;;;;;;;;;4926136;29;20044;-86
2023/08/01 17:28:50;;;;;;;8.70;5.25;;;;;;;;;;4926920;29;20107;-86
2023/08/01 17:31:17;;;;;;;8.20;5.22;;;;;;;;;;4926619;29;20047;-85
2023/08/01 17:33:44;;;;;;;11.93;8.30;;;;;;;;;;4927133;28;20568;-85
2023/08/01 17:36:10;;;;;;;10.00;8.70;;;;;;;;;;4925721;29;20043;-86
2023/08/01 17:38:37;;;;;;;9.32;8.35;;;;;;;;;;4926885;29;20472;-86
2023/08/01 17:41:28;;;;;;;8.02;7.18;;;;;;;;;;4926818;29;20106;-86
2023/08/01 17:43:56;;;;;;;8.43;5.95;;;;;;;;;;4926483;29;20052;-85
2023/08/01 17:46:24;;;;;;;12.95;8.80;;;;;;;;;;4937571;28;20048;-83
2023/08/01 17:48:49;;;;;;;13.90;7.95;;;;;;;;;;4926959;29;20111;-84
2023/08/01 17:51:16;;;;;;;35.33;14.85;;;;;;;;;;4925729;29;20048;-83
2023/08/01 17:53:44;;;;;;;15.07;11.07;;;;;;;;;;4926453;29;20516;-83
2023/08/01 17:56:10;;;;;;;12.45;9.93;;;;;;;;;;4926097;29;20074;-83
2023/08/01 17:58:36;;;;;;;4.72;4.05;;;;;;;;;;4926652;29;20044;-84
2023/08/01 18:01:01;;;;;;;7.25;4.88;;;;;;;;;;4924011;29;20058;-81
2023/08/01 18:03:26;;;;;;;6.97;4.72;;;;;;;;;;4925924;29;20047;-84
2023/08/01 18:06:21;;;;;;;16.42;10.35;;;;;;;;;;4926412;29;20491;-84
2023/08/01 18:08:47;;;;;;;8.55;5.45;;;;;;;;;;4893022;29;20043;-82
2023/08/01 18:11:14;;;;;;;9.35;7.15;;;;;;;;;;4925826;29;20521;-82
2023/08/01 18:13:41;;;;;;;21.52;8.38;;;;;;;;;;4926670;29;20044;-82
2023/08/01 18:16:07;;;;;;;7.97;5.22;;;;;;;;;;4925701;29;20178;-84
2023/08/01 18:18:35;;;;;;;11.68;10.45;;;;;;;;;;4909259;29;20126;-84
2023/08/01 18:21:04;;;;;;;8.00;7.20;;;;;;;;;;4915590;28;20047;-84
2023/08/01 18:23:30;;;;;;;5.05;2.88;;;;;;;;;;4923644;29;20075;-84
2023/08/01 18:25:55;;;;;;;16.25;13.98;;;;;;;;;;4926066;29;20075;-84
2023/08/01 18:28:21;;;;;;;29.83;27.08;;;;;;;;;;4926514;29;20036;-85
2023/08/01 18:30:47;;;;;;;9.52;3.53;;;;;;;;;;4929882;29;20094;-85
2023/08/01 18:33:12;;;;;;;37.90;19.05;;;;;;;;;;4929990;29;20043;-86
2023/08/01 18:35:44;;;;;;;28.50;11.93;;;;;;;;;;4921484;29;20601;-85
2023/08/01 18:38:10;;;;;;;34.58;24.35;;;;;;;;;;4917597;29;20416;-84
2023/08/01 18:40:37;;;;;;;26.67;13.52;;;;;;;;;;4930537;29;20048;-84
2023/08/01 18:43:02;;;;;;;19.80;12.63;;;;;;;;;;4930244;29;20040;-85
2023/08/01 18:45:28;;;;;;;18.35;6.28;;;;;;;;;;4922234;29;20051;-84
2023/08/01 18:47:54;;;;;;;19.40;7.00;;;;;;;;;;4926919;29;20079;-85
2023/08/01 18:50:19;;;;;;;34.10;13.13;;;;;;;;;;4929875;29;20058;-85
2023/08/01 18:52:51;;;;;;;48.90;9.27;;;;;;;;;;4912834;29;20051;-87
2023/08/01 18:55:16;;;;;;;81.28;29.27;;;;;;;;;;4929462;29;20047;-85
2023/08/01 18:57:46;;;;;;;66.75;11.98;;;;;;;;;;4912985;29;20513;-87
2023/08/01 19:00:12;;;;;;;93.43;15.90;;;;;;;;;;4928166;29;20123;-86
2023/08/01 19:02:38;;;;;;;86.78;14.63;;;;;;;;;;4929737;29;20126;-86
2023/08/01 19:05:06;;;;;;;104.72;13.38;;;;;;;;;;4930045;29;20665;-87
2023/08/01 19:07:31;;;;;;;122.43;14.20;;;;;;;;;;4928293;29;20464;-86
2023/08/01 19:09:57;;;;;;;105.70;13.82;;;;;;;;;;4927356;29;20048;-84
2023/08/01 19:12:22;;;;;;;125.05;13.88;;;;;;;;;;4928777;29;20051;-85
2023/08/01 19:14:48;;;;;;;125.63;14.32;;;;;;;;;;4921556;29;20088;-87
2023/08/01 19:17:13;;;;;;;133.85;15.48;;;;;;;;;;4922146;29;20083;-88
2023/08/01 19:19:39;;;;;;;101.53;13.77;;;;;;;;;;4929992;29;20043;-87
2023/08/01 19:22:04;;;;;;;136.85;13.77;;;;;;;;;;4928871;29;20043;-85
2023/08/01 19:24:29;;;;;;;113.50;14.90;;;;;;;;;;4929630;29;20131;-88
2023/08/01 19:26:55;;;;;;;126.25;14.15;;;;;;;;;;4929646;29;20044;-87
2023/08/01 19:29:21;;;;;;;130.32;14.63;;;;;;;;;;4920417;29;20524;-87
2023/08/01 19:31:46;;;;;;;143.75;15.35;;;;;;;;;;4929262;29;20047;-88
2023/08/01 19:34:12;;;;;;;147.88;14.48;;;;;;;;;;4939845;29;20054;-88
2023/08/01 19:36:38;;;;;;;144.38;14.13;;;;;;;;;;4918707;29;20055;-87
2023/08/01 19:39:03;;;;;;;155.82;15.52;;;;;;;;;;4909831;29;20458;-87
2023/08/01 19:41:29;;;;;;;145.05;15.27;;;;;;;;;;4923039;29;20113;-87
2023/08/01 19:43:55;;;;;;;165.07;14.73;;;;;;;;;;4924630;29;20495;-87
2023/08/01 19:46:21;;;;;;;175.30;15.90;;;;;;;;;;4927597;29;20054;-85
2023/08/01 19:48:47;;;;;;;202.50;15.52;;;;;;;;;;4938721;29;20099;-87
2023/08/01 19:51:12;;;;;;;174.68;15.05;;;;;;;;;;4941424;29;20445;-87
2023/08/01 19:53:38;;;;;;;249.68;16.67;;;;;;;;;;4926542;29;20040;-85
2023/08/01 19:56:03;;;;;;;198.68;16.35;;;;;;;;;;4927319;29;20058;-85
2023/08/01 19:58:29;;;;;;;193.20;15.88;;;;;;;;;;4927507;29;20099;-87
2023/08/01 20:00:54;;;;;;;179.52;16.27;;;;;;;;;;4926948;29;20478;-89
2023/08/01 20:03:20;;;;;;;242.68;17.23;;;;;;;;;;4927306;29;20047;-89
2023/08/01 20:05:45;;;;;;;225.85;16.08;;;;;;;;;;4927531;29;20036;-86
2023/08/01 20:08:12;;;;;;;169.98;16.65;;;;;;;;;;4928028;29;20044;-89
2023/08/01 20:10:37;;;;;;;269.95;16.98;;;;;;;;;;4940664;29;20312;-86
2023/08/01 20:13:03;;;;;;;234.27;17.73;;;;;;;;;;4927388;29;20044;-87
2023/08/01 20:15:28;;;;;;;223.98;19.55;;;;;;;;;;4929200;29;20039;-88
2023/08/01 20:17:54;;;;;;;234.15;18.23;;;;;;;;;;4937500;29;20106;-89
2023/08/01 20:20:20;;;;;;;271.80;20.30;;;;;;;;;;4909414;29;20124;-87
2023/08/01 20:22:45;;;;;;;310.27;19.27;;;;;;;;;;4919011;29;20051;-88
2023/08/01 20:25:12;;;;;;;147.07;17.58;;;;;;;;;;4913057;29;20528;-88